createdAt,value
2022-11-28T00:01:01.552Z,1.10
2022-11-28T00:03:29.427Z,0.98
2022-11-28T00:05:57.739Z,0.68
2022-11-28T00:08:25.761Z,0.85
2022-11-28T00:10:55.005Z,0.98
2022-11-28T00:13:22.872Z,1.00
2022-11-28T00:15:55.827Z,1.10
2022-11-28T00:18:24.029Z,1.10
2022-11-28T00:20:51.845Z,0.98
2022-11-28T00:23:19.756Z,1.00
2022-11-28T00:25:47.679Z,1.17
2022-11-28T00:28:16.794Z,1.05
2022-11-28T00:30:44.584Z,0.73
2022-11-28T00:33:12.290Z,1.02
2022-11-28T00:35:40.166Z,0.55
2022-11-28T00:38:07.976Z,1.08
2022-11-28T00:40:35.666Z,0.88
2022-11-28T00:43:03.397Z,0.90
2022-11-28T00:45:32.573Z,0.60
2022-11-28T00:48:00.359Z,1.13
2022-11-28T00:50:28.172Z,0.90
2022-11-28T00:52:56.101Z,0.68
2022-11-28T00:55:23.894Z,0.65
2022-11-28T00:57:51.666Z,0.88
2022-11-28T01:00:19.791Z,1.08
2022-11-28T01:02:49.146Z,0.90
2022-11-28T01:05:17.561Z,0.60
2022-11-28T01:07:45.284Z,0.73
2022-11-28T01:10:13.129Z,0.60
2022-11-28T01:12:41.093Z,0.68
2022-11-28T01:15:10.868Z,0.50
2022-11-28T01:17:38.734Z,0.80
2022-11-28T01:20:09.299Z,0.70
2022-11-28T01:22:37.179Z,1.02
2022-11-28T01:25:05.088Z,0.50
2022-11-28T01:27:33.011Z,0.82
2022-11-28T01:30:00.926Z,0.90
2022-11-28T01:32:28.888Z,1.13
2022-11-28T01:34:56.712Z,0.80
2022-11-28T01:37:26.011Z,1.00
2022-11-28T01:39:53.880Z,0.93
2022-11-28T01:42:21.675Z,0.50
2022-11-28T01:45:03.170Z,1.10
2022-11-28T01:47:31.910Z,0.70
2022-11-28T01:50:00.338Z,0.70
2022-11-28T01:52:29.672Z,1.02
2022-11-28T01:55:01.332Z,0.70
2022-11-28T01:57:30.381Z,1.00
2022-11-28T01:59:59.781Z,1.05
2022-11-28T02:02:30.218Z,0.80
2022-11-28T02:04:59.286Z,1.10
2022-11-28T02:07:27.761Z,0.70
2022-11-28T02:09:57.693Z,0.80
2022-11-28T02:12:31.400Z,1.00
2022-11-28T02:15:22.906Z,1.00
2022-11-28T02:17:58.820Z,0.73
2022-11-28T02:20:45.372Z,0.45
2022-11-28T02:23:16.760Z,0.60
2022-11-28T02:25:58.462Z,0.77
2022-11-28T02:28:41.224Z,0.60
2022-11-28T02:31:18.015Z,0.85
2022-11-28T02:33:49.153Z,0.80
2022-11-28T02:36:20.234Z,0.90
2022-11-28T02:38:53.831Z,1.00
2022-11-28T02:41:26.968Z,0.70
2022-11-28T02:44:00.336Z,0.70
2022-11-28T02:46:33.613Z,0.95
2022-11-28T02:49:04.625Z,0.38
2022-11-28T02:51:34.534Z,0.50
2022-11-28T02:54:03.292Z,0.85
2022-11-28T02:56:31.311Z,0.70
2022-11-28T02:58:59.227Z,0.73
2022-11-28T03:01:33.487Z,0.60
2022-11-28T03:04:17.683Z,0.75
2022-11-28T03:06:50.259Z,0.43
2022-11-28T03:09:27.649Z,0.93
2022-11-28T03:11:59.727Z,1.30
2022-11-28T03:14:32.944Z,0.50
2022-11-28T03:17:07.941Z,0.80
2022-11-28T03:19:39.021Z,0.68
2022-11-28T03:22:10.328Z,0.80
2022-11-28T03:24:42.018Z,0.60
2022-11-28T03:27:14.950Z,0.70
2022-11-28T03:29:44.624Z,0.50
2022-11-28T03:32:14.434Z,0.45
2022-11-28T03:34:46.909Z,0.73
2022-11-28T03:37:16.925Z,0.57
2022-11-28T03:39:46.931Z,1.05
2022-11-28T03:42:17.878Z,0.52
2022-11-28T03:44:47.638Z,0.60
2022-11-28T03:47:15.357Z,0.28
2022-11-28T03:49:45.059Z,0.47
2022-11-28T03:52:17.360Z,0.70
2022-11-28T03:54:49.388Z,0.63
2022-11-28T03:57:21.451Z,0.80
2022-11-28T03:59:53.718Z,0.30
2022-11-28T04:02:23.483Z,0.70
2022-11-28T04:04:54.663Z,0.28
2022-11-28T04:07:28.097Z,0.40
2022-11-28T04:09:58.384Z,0.50
2022-11-28T04:12:31.162Z,0.40
2022-11-28T04:15:01.904Z,0.63
2022-11-28T04:17:32.941Z,0.50
2022-11-28T04:20:05.416Z,0.60
2022-11-28T04:22:36.383Z,0.40
2022-11-28T04:25:06.729Z,0.75
2022-11-28T04:27:37.306Z,0.30
2022-11-28T04:30:06.595Z,0.52
2022-11-28T04:32:36.069Z,0.55
2022-11-28T04:35:05.816Z,0.73
2022-11-28T04:37:36.458Z,0.77
2022-11-28T04:40:05.850Z,0.68
2022-11-28T04:42:36.430Z,0.90
2022-11-28T04:45:07.153Z,0.38
2022-11-28T04:47:34.950Z,0.40
2022-11-28T04:50:02.892Z,0.65
2022-11-28T04:52:35.875Z,0.55
2022-11-28T04:55:08.453Z,0.80
2022-11-28T04:57:37.800Z,0.70
2022-11-28T05:00:07.373Z,0.73
2022-11-28T05:02:35.573Z,0.95
2022-11-28T05:05:07.546Z,0.55
2022-11-28T05:07:35.429Z,0.50
2022-11-28T05:10:03.322Z,0.47
2022-11-28T05:12:32.442Z,0.85
2022-11-28T05:15:00.211Z,0.80
2022-11-28T05:17:27.994Z,0.30
2022-11-28T05:19:55.756Z,0.50
2022-11-28T05:22:23.838Z,0.55
2022-11-28T05:24:51.689Z,0.68
2022-11-28T05:27:19.645Z,0.38
2022-11-28T05:29:52.247Z,0.55
2022-11-28T05:32:20.355Z,0.57
2022-11-28T05:34:48.166Z,0.45
2022-11-28T05:37:16.648Z,0.73
2022-11-28T05:39:44.705Z,0.55
2022-11-28T05:42:12.781Z,0.90
2022-11-28T05:44:40.858Z,0.30
2022-11-28T05:47:10.100Z,0.82
2022-11-28T05:49:37.863Z,0.52
2022-11-28T05:52:05.783Z,0.52
2022-11-28T05:54:33.648Z,0.73
2022-11-28T05:57:01.667Z,0.40
2022-11-28T05:59:29.475Z,1.02
2022-11-28T06:01:57.523Z,1.05
2022-11-28T06:04:27.012Z,0.73
2022-11-28T06:06:54.921Z,0.43
2022-11-28T06:09:25.894Z,1.00
2022-11-28T06:11:54.184Z,0.70
2022-11-28T06:14:21.987Z,1.00
2022-11-28T06:16:49.917Z,1.00
2022-11-28T06:19:17.881Z,3.45
2022-11-28T06:21:47.482Z,1.08
2022-11-28T06:24:15.505Z,1.30
2022-11-28T06:26:43.462Z,0.60
2022-11-28T06:29:11.389Z,1.17
2022-11-28T06:31:39.354Z,0.52
2022-11-28T06:34:07.211Z,0.82
2022-11-28T06:36:35.240Z,1.15
2022-11-28T06:39:04.591Z,0.90
2022-11-28T06:41:32.457Z,1.70
2022-11-28T06:44:00.269Z,1.13
2022-11-28T06:46:28.204Z,0.65
2022-11-28T06:48:56.050Z,0.68
2022-11-28T06:51:23.958Z,0.85
2022-11-28T06:53:52.422Z,1.17
2022-11-28T06:56:21.852Z,1.13
2022-11-28T06:58:54.889Z,0.93
2022-11-28T07:01:23.717Z,1.10
2022-11-28T07:03:51.784Z,1.15
2022-11-28T07:06:20.380Z,1.40
2022-11-28T07:08:48.600Z,1.30
2022-11-28T07:11:17.184Z,1.35
2022-11-28T07:13:46.839Z,2.42
2022-11-28T07:16:15.870Z,0.95
2022-11-28T07:18:44.115Z,1.23
2022-11-28T07:21:12.280Z,1.15
2022-11-28T07:23:40.389Z,0.75
2022-11-28T07:26:08.261Z,1.52
2022-11-28T07:28:36.196Z,1.45
2022-11-28T07:31:06.711Z,1.17
2022-11-28T07:33:35.240Z,1.27
2022-11-28T07:36:03.428Z,1.15
2022-11-28T07:38:31.692Z,1.30
2022-11-28T07:41:04.055Z,0.68
2022-11-28T07:43:32.119Z,1.65
2022-11-28T07:46:01.552Z,1.02
2022-11-28T07:48:31.132Z,1.90
2022-11-28T07:50:59.104Z,1.58
2022-11-28T07:53:27.020Z,0.90
2022-11-28T07:55:54.884Z,0.90
2022-11-28T07:58:22.794Z,1.05
2022-11-28T08:00:50.716Z,1.05
2022-11-28T08:03:18.528Z,0.88
2022-11-28T08:05:49.674Z,1.05
2022-11-28T08:08:17.989Z,1.20
2022-11-28T08:10:46.169Z,1.85
2022-11-28T08:13:14.588Z,0.95
2022-11-28T08:15:42.518Z,1.63
2022-11-28T08:18:10.383Z,0.80
2022-11-28T08:20:38.247Z,0.80
2022-11-28T08:23:07.492Z,1.40
2022-11-28T08:25:35.410Z,0.85
2022-11-28T08:28:03.319Z,0.85
2022-11-28T08:30:31.146Z,0.77
2022-11-28T08:32:59.357Z,1.83
2022-11-28T08:35:27.332Z,0.63
2022-11-28T08:37:58.978Z,0.90
2022-11-28T08:40:30.804Z,2.10
2022-11-28T08:42:59.725Z,1.50
2022-11-28T08:45:27.735Z,1.60
2022-11-28T08:47:55.725Z,1.17
2022-11-28T08:50:23.637Z,1.33
2022-11-28T08:52:51.498Z,1.38
2022-11-28T08:55:23.646Z,1.33
2022-11-28T08:58:00.849Z,1.92
2022-11-28T09:00:28.620Z,1.20
2022-11-28T09:02:56.476Z,1.35
2022-11-28T09:05:24.238Z,1.17
2022-11-28T09:07:51.976Z,1.25
2022-11-28T09:10:19.839Z,1.10
2022-11-28T09:12:47.677Z,1.15
2022-11-28T09:15:17.091Z,1.20
2022-11-28T09:17:44.887Z,1.02
2022-11-28T09:20:13.111Z,1.30
2022-11-28T09:22:42.629Z,0.95
2022-11-28T09:25:10.584Z,1.25
2022-11-28T09:27:38.548Z,1.10
2022-11-28T09:30:07.676Z,1.20
2022-11-28T09:32:37.217Z,1.48
2022-11-28T09:35:05.637Z,1.42
2022-11-28T09:37:33.604Z,1.30
2022-11-28T09:40:16.484Z,1.20
2022-11-28T09:42:45.218Z,1.02
2022-11-28T09:45:16.091Z,1.52
2022-11-28T09:47:47.135Z,1.40
2022-11-28T09:50:16.823Z,1.80
2022-11-28T09:52:48.295Z,1.30
2022-11-28T09:55:19.381Z,1.35
2022-11-28T09:57:48.115Z,1.40
2022-11-28T10:00:18.768Z,1.10
2022-11-28T10:02:56.185Z,1.17
2022-11-28T10:05:27.173Z,1.08
2022-11-28T10:08:01.889Z,1.00
2022-11-28T10:10:35.023Z,1.40
2022-11-28T10:13:06.537Z,1.17
2022-11-28T10:15:41.151Z,1.45
2022-11-28T10:18:18.611Z,1.50
2022-11-28T10:20:47.915Z,1.40
2022-11-28T10:23:18.343Z,1.30
2022-11-28T10:25:48.909Z,1.10
2022-11-28T10:28:18.353Z,1.20
2022-11-28T10:30:48.865Z,1.58
2022-11-28T10:33:24.019Z,1.42
2022-11-28T10:35:54.569Z,0.95
2022-11-28T10:38:27.328Z,1.52
2022-11-28T10:40:59.097Z,1.30
2022-11-28T10:43:38.503Z,1.23
2022-11-28T10:46:14.254Z,1.75
2022-11-28T10:48:46.305Z,1.52
2022-11-28T10:51:21.637Z,1.75
2022-11-28T10:53:53.991Z,1.20
2022-11-28T10:56:29.131Z,1.73
2022-11-28T10:58:59.672Z,1.70
2022-11-28T11:01:29.604Z,1.27
2022-11-28T11:03:59.126Z,1.15
2022-11-28T11:06:36.059Z,1.25
2022-11-28T11:09:09.398Z,2.05
2022-11-28T11:11:40.985Z,1.45
2022-11-28T11:14:09.991Z,1.33
2022-11-28T11:16:50.760Z,1.25
2022-11-28T11:19:26.203Z,1.40
2022-11-28T11:21:59.596Z,1.60
2022-11-28T11:24:27.506Z,1.52
2022-11-28T11:26:55.736Z,1.20
2022-11-28T11:29:24.370Z,1.38
2022-11-28T11:31:52.842Z,1.67
2022-11-28T11:34:21.522Z,1.20
2022-11-28T11:36:51.035Z,1.60
2022-11-28T11:39:23.417Z,1.92
2022-11-28T11:41:52.124Z,1.30
2022-11-28T11:44:34.876Z,1.52
2022-11-28T11:47:05.228Z,1.67
2022-11-28T11:49:34.377Z,1.73
2022-11-28T11:52:04.859Z,1.80
2022-11-28T11:54:32.856Z,1.55
2022-11-28T11:57:30.814Z,1.75
2022-11-28T11:59:50.924Z,1.33
2022-11-28T12:02:23.250Z,1.10
2022-11-28T12:04:55.753Z,1.10
2022-11-28T12:07:27.734Z,1.30
2022-11-28T12:10:00.505Z,1.52
2022-11-28T12:12:32.352Z,1.25
2022-11-28T12:15:00.287Z,1.55
2022-11-28T12:17:48.437Z,1.40
2022-11-28T12:20:27.758Z,1.50
2022-11-28T12:23:02.376Z,1.60
2022-11-28T12:25:34.854Z,1.75
2022-11-28T12:28:06.986Z,1.27
2022-11-28T12:30:44.677Z,1.33
2022-11-28T12:33:21.959Z,1.42
2022-11-28T12:35:59.006Z,1.50
2022-11-28T12:38:37.252Z,1.58
2022-11-28T12:41:10.742Z,1.80
2022-11-28T12:43:43.716Z,0.98
2022-11-28T12:46:15.929Z,1.77
2022-11-28T12:48:53.184Z,1.40
2022-11-28T12:51:27.491Z,1.92
2022-11-28T12:54:07.440Z,1.65
2022-11-28T12:56:42.371Z,1.20
2022-11-28T12:59:15.566Z,1.77
2022-11-28T13:01:48.907Z,1.25
2022-11-28T13:04:25.934Z,1.85
2022-11-28T13:06:57.535Z,1.73
2022-11-28T13:09:31.399Z,1.33
2022-11-28T13:12:15.485Z,1.70
2022-11-28T13:14:49.056Z,1.50
2022-11-28T13:17:23.710Z,1.42
2022-11-28T13:19:53.828Z,1.70
2022-11-28T13:22:24.664Z,2.00
2022-11-28T13:25:00.846Z,1.80
2022-11-28T13:27:34.114Z,2.20
2022-11-28T13:30:08.083Z,1.90
2022-11-28T13:32:39.581Z,1.90
2022-11-28T13:35:12.946Z,1.50
2022-11-28T13:40:34.965Z,1.75
2022-11-28T13:43:08.232Z,1.38
2022-11-28T13:45:39.304Z,1.50
2022-11-28T13:48:32.233Z,1.88
2022-11-28T13:51:19.990Z,1.88
2022-11-28T13:54:11.692Z,2.28
2022-11-28T13:56:40.900Z,1.80
2022-11-28T13:59:17.778Z,1.98
2022-11-28T14:01:46.608Z,1.50
2022-11-28T14:04:15.453Z,1.42
2022-11-28T14:06:45.864Z,1.85
2022-11-28T14:09:28.111Z,2.10
2022-11-28T14:12:02.917Z,1.75
2022-11-28T14:14:54.504Z,1.70
2022-11-28T14:17:29.123Z,1.85
2022-11-28T14:20:03.387Z,2.28
2022-11-28T14:22:35.788Z,1.67
2022-11-28T14:25:06.428Z,1.63
2022-11-28T14:27:37.314Z,1.33
2022-11-28T14:30:08.174Z,1.90
2022-11-28T14:32:38.959Z,1.48
2022-11-28T14:35:07.751Z,1.27
2022-11-28T14:37:37.328Z,1.55
2022-11-28T14:40:28.283Z,1.65
2022-11-28T14:43:11.348Z,1.85
2022-11-28T14:45:45.206Z,2.10
2022-11-28T14:48:20.499Z,2.03
2022-11-28T14:50:49.677Z,1.40
2022-11-28T14:53:39.046Z,2.30
2022-11-28T14:56:22.431Z,1.52
2022-11-28T14:58:51.234Z,1.58
2022-11-28T15:01:25.672Z,1.67
2022-11-28T15:03:56.531Z,1.65
2022-11-28T15:06:26.126Z,1.20
2022-11-28T15:09:00.217Z,1.63
2022-11-28T15:11:37.027Z,1.45
2022-11-28T15:14:15.911Z,1.65
2022-11-28T15:16:50.713Z,1.50
2022-11-28T15:19:23.941Z,1.40
2022-11-28T15:21:52.544Z,1.70
2022-11-28T15:24:25.342Z,1.70
2022-11-28T15:26:57.427Z,1.52
2022-11-28T15:29:26.383Z,1.63
2022-11-28T15:31:56.640Z,1.75
2022-11-28T15:34:25.946Z,1.50
2022-11-28T15:36:54.623Z,1.30
2022-11-28T15:39:26.022Z,1.63
2022-11-28T15:41:53.852Z,1.75
2022-11-28T15:44:21.765Z,1.83
2022-11-28T15:46:49.718Z,1.25
2022-11-28T15:49:30.351Z,2.00
2022-11-28T15:52:00.797Z,1.98
2022-11-28T15:54:34.564Z,1.75
2022-11-28T15:57:02.681Z,2.20
2022-11-28T15:59:30.809Z,1.70
2022-11-28T16:02:01.102Z,1.73
2022-11-28T16:04:30.841Z,1.50
2022-11-28T16:07:00.319Z,1.55
2022-11-28T16:09:29.697Z,1.48
2022-11-28T16:11:57.646Z,2.00
2022-11-28T16:14:27.111Z,1.60
2022-11-28T16:16:55.306Z,1.73
2022-11-28T16:19:24.497Z,1.25
2022-11-28T16:21:53.992Z,1.80
2022-11-28T16:24:25.844Z,1.50
2022-11-28T16:26:54.998Z,1.50
2022-11-28T16:29:24.445Z,2.10
2022-11-28T16:31:52.446Z,2.08
2022-11-28T16:34:40.484Z,2.13
2022-11-28T16:37:12.610Z,1.98
2022-11-28T16:39:40.521Z,1.95
2022-11-28T16:42:13.249Z,1.83
2022-11-28T16:44:41.123Z,2.28
2022-11-28T16:47:24.562Z,2.10
2022-11-28T16:50:05.000Z,2.20
2022-11-28T16:52:50.795Z,3.05
2022-11-28T16:55:37.199Z,2.60
2022-11-28T16:58:11.513Z,2.10
2022-11-28T17:00:40.275Z,2.60
2022-11-28T17:03:12.713Z,2.30
2022-11-28T17:05:40.663Z,2.30
2022-11-28T17:08:08.808Z,2.63
2022-11-28T17:10:36.626Z,2.40
2022-11-28T17:13:04.339Z,2.25
2022-11-28T17:15:33.521Z,2.55
2022-11-28T17:18:01.254Z,2.45
2022-11-28T17:20:29.012Z,2.85
2022-11-28T17:22:56.843Z,2.60
2022-11-28T17:25:24.639Z,2.70
2022-11-28T17:27:52.953Z,2.50
2022-11-28T17:30:20.625Z,2.22
2022-11-28T17:32:51.919Z,2.65
2022-11-28T17:35:22.911Z,2.70
2022-11-28T17:37:50.880Z,2.60
2022-11-28T17:40:38.807Z,2.72
2022-11-28T17:43:07.593Z,2.85
2022-11-28T17:45:36.935Z,2.40
2022-11-28T17:48:07.460Z,2.95
2022-11-28T17:50:35.295Z,2.35
2022-11-28T17:53:03.587Z,2.90
2022-11-28T17:55:31.888Z,3.13
2022-11-28T17:57:59.892Z,3.00
2022-11-28T18:00:29.320Z,3.42
2022-11-28T18:02:56.984Z,3.50
2022-11-28T18:05:26.072Z,3.00
2022-11-28T18:07:53.785Z,3.30
2022-11-28T18:10:21.588Z,2.90
2022-11-28T18:12:49.968Z,4.00
2022-11-28T18:15:18.606Z,3.63
2022-11-28T18:17:46.318Z,4.18
2022-11-28T18:20:14.128Z,3.72
2022-11-28T18:22:43.373Z,3.65
2022-11-28T18:25:11.298Z,3.25
2022-11-28T18:27:39.412Z,3.35
2022-11-28T18:30:07.661Z,3.42
2022-11-28T18:32:35.261Z,3.85
2022-11-28T18:35:03.104Z,3.60
2022-11-28T18:37:31.339Z,4.15
2022-11-28T18:40:01.627Z,4.07
2022-11-28T18:42:31.066Z,3.55
2022-11-28T18:44:58.862Z,3.95
2022-11-28T18:47:28.512Z,3.95
2022-11-28T18:49:56.471Z,4.05
2022-11-28T18:52:24.876Z,4.00
2022-11-28T18:54:53.044Z,3.97
2022-11-28T18:57:22.545Z,3.78
2022-11-28T18:59:54.950Z,4.10
2022-11-28T19:02:23.358Z,3.90
2022-11-28T19:04:51.070Z,3.45
2022-11-28T19:07:18.764Z,4.10
2022-11-28T19:09:46.660Z,3.55
2022-11-28T19:12:15.071Z,4.30
2022-11-28T19:14:44.223Z,3.40
2022-11-28T19:17:12.945Z,3.90
2022-11-28T19:19:44.142Z,3.75
2022-11-28T19:22:12.576Z,3.90
2022-11-28T19:24:40.592Z,3.60
2022-11-28T19:27:13.868Z,3.63
2022-11-28T19:29:44.954Z,4.22
2022-11-28T19:32:13.861Z,3.67
2022-11-28T19:34:41.766Z,3.33
2022-11-28T19:37:09.582Z,3.63
2022-11-28T19:39:37.495Z,4.47
2022-11-28T19:42:05.548Z,4.43
2022-11-28T19:44:33.391Z,4.75
2022-11-28T19:47:02.842Z,4.45
2022-11-28T19:49:30.663Z,4.20
2022-11-28T19:51:58.523Z,4.50
2022-11-28T19:54:26.905Z,4.90
2022-11-28T19:56:56.560Z,5.18
2022-11-28T19:59:24.368Z,4.75
2022-11-28T20:01:53.883Z,2.05
2022-11-28T20:04:24.278Z,1.23
2022-11-28T20:06:52.106Z,2.20
2022-11-28T20:09:20.330Z,1.27
2022-11-28T20:11:48.656Z,1.58
2022-11-28T20:14:17.506Z,1.45
2022-11-28T20:16:45.870Z,1.60
2022-11-28T20:19:15.630Z,1.58
2022-11-28T20:21:47.303Z,1.65
2022-11-28T20:24:17.257Z,1.85
2022-11-28T20:26:47.260Z,1.50
2022-11-28T20:29:16.084Z,0.60
2022-11-28T20:31:45.655Z,1.40
2022-11-28T20:34:16.448Z,1.00
2022-11-28T20:36:44.427Z,1.55
2022-11-28T20:39:13.967Z,1.48
2022-11-28T20:41:41.736Z,2.20
2022-11-28T20:44:09.491Z,2.00
2022-11-28T20:46:37.396Z,1.65
2022-11-28T20:49:05.895Z,2.75
2022-11-28T20:51:34.711Z,1.48
2022-11-28T20:54:02.948Z,1.52
2022-11-28T20:56:41.798Z,1.40
2022-11-28T20:59:19.776Z,0.95
2022-11-28T21:01:47.564Z,2.20
2022-11-28T21:04:16.891Z,1.48
2022-11-28T21:06:47.202Z,1.83
2022-11-28T21:09:15.796Z,1.60
2022-11-28T21:12:01.029Z,1.65
2022-11-28T21:14:29.328Z,1.45
2022-11-28T21:16:57.664Z,2.17
2022-11-28T21:19:25.691Z,1.33
2022-11-28T21:21:53.872Z,1.33
2022-11-28T21:24:21.666Z,1.92
2022-11-28T21:26:53.896Z,1.63
2022-11-28T21:29:23.039Z,2.00
2022-11-28T21:31:50.923Z,1.90
2022-11-28T21:34:19.551Z,2.30
2022-11-28T21:36:47.655Z,1.63
2022-11-28T21:39:17.167Z,2.28
2022-11-28T21:41:45.615Z,2.58
2022-11-28T21:44:14.934Z,2.42
2022-11-28T21:46:43.621Z,1.42
2022-11-28T21:49:12.768Z,1.85
2022-11-28T21:51:41.095Z,1.60
2022-11-28T21:54:10.400Z,1.33
2022-11-28T21:56:38.314Z,1.98
2022-11-28T21:59:06.128Z,1.60
2022-11-28T22:01:35.711Z,1.85
2022-11-28T22:04:04.463Z,2.55
2022-11-28T22:06:32.636Z,1.42
2022-11-28T22:09:07.113Z,1.15
2022-11-28T22:11:36.917Z,1.63
2022-11-28T22:14:05.032Z,2.00
2022-11-28T22:16:33.555Z,2.78
2022-11-28T22:19:03.018Z,1.13
2022-11-28T22:24:19.181Z,1.52
2022-11-28T22:26:47.966Z,1.13
2022-11-28T22:29:15.886Z,1.50
2022-11-28T22:31:43.739Z,2.20
2022-11-28T22:34:13.584Z,2.35
2022-11-28T22:36:41.582Z,0.82
2022-11-28T22:39:10.953Z,0.95
2022-11-28T22:41:38.993Z,0.88
2022-11-28T22:44:06.804Z,1.80
2022-11-28T22:46:34.839Z,1.08
2022-11-28T22:49:03.153Z,1.60
2022-11-28T22:51:33.221Z,1.23
2022-11-28T22:54:02.570Z,1.60
2022-11-28T22:56:31.219Z,2.80
2022-11-28T22:58:59.930Z,1.48
2022-11-28T23:01:29.604Z,2.45
2022-11-28T23:03:58.183Z,1.20
2022-11-28T23:06:27.023Z,1.40
2022-11-28T23:08:57.530Z,1.65
2022-11-28T23:11:28.438Z,2.10
2022-11-28T23:13:56.772Z,1.00
2022-11-28T23:16:26.271Z,1.27
2022-11-28T23:18:55.809Z,1.35
2022-11-28T23:21:24.243Z,1.13
2022-11-28T23:23:52.981Z,1.27
2022-11-28T23:26:23.818Z,0.98
2022-11-28T23:28:52.802Z,1.10
2022-11-28T23:31:21.704Z,1.42
2022-11-28T23:33:50.119Z,1.50
2022-11-28T23:36:19.583Z,1.95
2022-11-28T23:38:48.779Z,1.67
2022-11-28T23:41:16.585Z,1.35
2022-11-28T23:43:45.788Z,1.48
2022-11-28T23:46:14.355Z,1.23
2022-11-28T23:48:42.726Z,1.60
2022-11-28T23:51:12.909Z,1.83
2022-11-28T23:53:41.391Z,1.10
2022-11-28T23:56:09.970Z,1.92
2022-11-28T23:58:37.875Z,1.35
